Sigfox identifier Datetime Temperature Humidity SNR
003BB0BB 2018-10-09 09:24:18 21.4 40 15.6
003BB0BB 2018-10-09 08:20:46 21.4 39 15.4
003BB0BB 2018-10-09 07:17:14 21.4 39 15.2
003BB0BB 2018-10-09 06:13:46 21.4 38 15.2
003BB0BB 2018-10-09 05:10:10 21.4 38 14.9
003BB0BB 2018-10-09 01:59:39 21.4 38 14
003BB0BB 2018-10-09 00:56:06 21.4 38 13.4
003BB0BB 2018-10-08 23:52:34 21.4 37 13
003BB0BB 2018-10-08 22:49:04 21.4 37 12.2
003BB0BB 2018-10-08 21:45:31 21.4 37 11.8
003BB0BB 2018-10-08 20:42:00 21.4 37 11.9
003BB0BB 2018-10-08 19:38:32 21.4 37 11.6
003BB0BB 2018-10-08 18:34:54 21.4 37 11.7
003BB0BB 2018-10-08 17:31:19 21.3 37 11.7
003BB0BB 2018-10-08 15:24:10 21.2 36 11.6
003BB0BB 2018-10-08 14:20:40 21.1 36 11.6
003BB0BB 2018-10-08 13:17:06 21 36 11.5
003BB0BB 2018-10-08 12:13:34 21 36 11.5
003BB0BB 2018-10-08 09:03:00 20.7 31 11.6
003BB0BB 2018-10-08 07:59:29 20.7 32 11.4
003BB0BB 2018-10-08 06:55:56 20.7 33 11.1
003BB0BB 2018-10-08 05:52:27 20.7 33 10.9
003BB0BB 2018-10-08 03:45:23 20.7 33 11.1
003BB0BB 2018-10-08 02:41:52 20.7 34 11.2
003BB0BB 2018-10-08 00:34:46 20.7 35 11.1
003BB0BB 2018-10-07 23:31:16 20.8 36 11.1
003BB0BB 2018-10-07 22:27:40 20.9 36 10.9
003BB0BB 2018-10-07 20:20:39 21 37 10.9
003BB0BB 2018-10-07 19:17:06 21 37 10.8
003BB0BB 2018-10-07 18:13:36 21 38 10.7
003BB0BB 2018-10-07 17:10:03 21 38 10.8
003BB0BB 2018-10-07 15:03:01 20.9 37 10.8
003BB0BB 2018-10-07 11:52:25 20.9 37 10.9
003BB0BB 2018-10-07 08:41:52 21 38 10.8
003BB0BB 2018-10-07 07:38:22 21 38 10.8
003BB0BB 2018-10-07 03:24:13 21 39 10.7
003BB0BB 2018-10-07 02:20:42 21 39 10.8
003BB0BB 2018-10-06 22:06:25 21.2 39 10.6
003BB0BB 2018-10-06 21:02:52 21.2 39 10.5
003BB0BB 2018-10-06 19:59:14 21.2 39 10.6
003BB0BB 2018-10-06 18:55:37 21.2 39 10.7
003BB0BB 2018-10-06 16:48:26 21.2 39 10.3
003BB0BB 2018-10-06 14:41:08 21.2 40 10.3
003BB0BB 2018-10-06 12:33:58 21.2 39 10.1
003BB0BB 2018-10-06 11:30:22 21.2 39 10.2
003BB0BB 2018-10-06 10:26:49 21.2 39 9.7
003BB0BB 2018-10-06 08:19:43 21.2 39 9.5
003BB0BB 2018-10-06 06:12:35 21.2 40 9
003BB0BB 2018-10-06 05:09:02 21.3 40 9
003BB0BB 2018-10-06 04:05:28 21.4 41 9.2
003BB0BB 2018-10-06 01:58:18 21.4 41 9.5
003BB0BB 2018-10-06 00:54:43 21.4 42 9.8
003BB0BB 2018-10-05 22:47:32 21.6 43 9.5
003BB0BB 2018-10-05 21:43:53 21.6 43 10.1
003BB0BB 2018-10-05 20:40:20 21.6 44 10.9
003BB0BB 2018-10-05 18:33:16 21.8 45 10.6
003BB0BB 2018-10-05 16:26:16 22 49 12.5
003BB0BB 2018-10-05 15:22:44 22 55 0